Time;durP1;ratioP1;P1;durP2;ratioP2;P2;SDS_P1;SDS_P2;PMS_P1;PMS_P2;Temp;Humidity;BMP_temperature;BMP_pressure;BME280_temperature;BME280_humidity;BME280_pressure;Samples;Min_cycle;Max_cycle;Signal;HPM_P1;HPM_P2
2021/12/04 00:02:22;;;;;;;5.07;3.23;;;6.00;99.90;;;;;;5094326;28;20208;-86
2021/12/04 00:04:51;;;;;;;2.93;2.30;;;6.10;99.90;;;;;;5098267;28;20163;-86
2021/12/04 00:07:18;;;;;;;3.50;2.77;;;6.10;99.90;;;;;;5080058;28;20160;-86
2021/12/04 00:10:20;;;;;;;3.30;2.20;;;6.10;99.90;;;;;;5088028;28;20231;-86
2021/12/04 00:12:53;;;;;;;3.27;2.50;;;6.10;99.90;;;;;;5086680;28;20160;-85
2021/12/04 00:15:18;;;;;;;3.03;2.70;;;6.10;99.90;;;;;;5086346;28;20214;-84
2021/12/04 00:17:44;;;;;;;5.20;2.53;;;6.00;99.90;;;;;;5079034;28;20578;-86
2021/12/04 00:20:10;;;;;;;4.30;2.47;;;6.00;99.90;;;;;;5078531;28;20184;-85
2021/12/04 00:22:37;;;;;;;4.57;2.50;;;6.10;99.90;;;;;;5089203;28;20196;-86
2021/12/04 00:25:07;;;;;;;5.00;2.90;;;6.00;99.90;;;;;;5092480;28;20165;-84
2021/12/04 00:27:34;;;;;;;4.17;2.90;;;6.10;99.90;;;;;;5086668;28;20179;-87
2021/12/04 00:30:00;;;;;;;3.87;2.97;;;6.00;99.90;;;;;;5090683;28;20188;-86
2021/12/04 00:32:36;;;;;;;3.40;2.60;;;6.00;99.90;;;;;;5093580;28;20175;-86
2021/12/04 00:35:13;;;;;;;3.53;2.80;;;6.00;99.90;;;;;;5089250;28;20247;-87
2021/12/04 00:43:18;;;;;;;3.60;2.90;;;6.00;99.90;;;;;;5081175;28;20168;-84
2021/12/04 00:51:17;;;;;;;4.53;3.00;;;6.00;99.90;;;;;;5064287;28;20266;-83
2021/12/04 00:53:43;;;;;;;3.60;2.70;;;6.00;99.90;;;;;;5058314;28;20621;-86
2021/12/04 00:56:08;;;;;;;3.60;3.10;;;6.10;99.90;;;;;;5058960;28;20169;-87
2021/12/04 00:58:35;;;;;;;3.97;3.10;;;6.10;99.90;;;;;;5061790;28;20153;-86
2021/12/04 01:01:02;;;;;;;3.93;2.70;;;6.20;99.90;;;;;;5067212;28;20217;-84
2021/12/04 01:03:28;;;;;;;4.30;3.03;;;6.10;99.90;;;;;;5069895;28;20172;-86
2021/12/04 01:05:54;;;;;;;3.57;3.00;;;6.00;99.90;;;;;;5070183;28;20161;-84
2021/12/04 01:08:19;;;;;;;4.03;2.83;;;6.00;99.90;;;;;;5067626;28;20165;-84
2021/12/04 01:10:45;;;;;;;3.00;2.70;;;6.10;99.90;;;;;;5057849;28;20169;-83
2021/12/04 01:13:12;;;;;;;3.77;2.80;;;6.10;99.90;;;;;;5059967;28;20169;-86
2021/12/04 01:15:44;;;;;;;3.67;2.90;;;6.20;99.90;;;;;;5058725;28;20215;-84
2021/12/04 01:18:11;;;;;;;3.17;2.67;;;6.10;99.90;;;;;;5058705;28;20222;-85
2021/12/04 01:20:37;;;;;;;4.10;2.83;;;6.10;99.90;;;;;;5058689;28;20193;-86
2021/12/04 01:23:03;;;;;;;4.33;3.30;;;6.10;99.90;;;;;;5058088;28;20322;-84
2021/12/04 01:25:29;;;;;;;4.47;3.30;;;6.10;99.90;;;;;;5067552;28;20157;-82
2021/12/04 01:27:55;;;;;;;5.40;3.63;;;6.10;99.90;;;;;;5074335;28;20199;-83
2021/12/04 01:30:20;;;;;;;3.40;2.63;;;6.10;99.90;;;;;;5072572;28;20189;-86
2021/12/04 01:32:46;;;;;;;3.73;2.90;;;6.10;99.90;;;;;;5068611;28;20240;-84
2021/12/04 01:35:13;;;;;;;3.63;3.00;;;6.10;99.90;;;;;;5063184;28;20540;-86
2021/12/04 01:37:41;;;;;;;3.73;2.70;;;6.10;99.90;;;;;;5064546;28;20197;-83
2021/12/04 01:40:08;;;;;;;3.30;2.67;;;6.10;99.90;;;;;;5062587;28;20242;-85
2021/12/04 01:42:36;;;;;;;3.77;2.80;;;6.10;99.90;;;;;;5058585;28;20192;-85
2021/12/04 01:45:05;;;;;;;2.90;2.60;;;6.00;99.90;;;;;;5056970;28;20264;-83
2021/12/04 01:47:30;;;;;;;3.50;2.73;;;6.10;99.90;;;;;;5055050;28;20181;-85
2021/12/04 01:49:58;;;;;;;3.23;2.73;;;6.10;99.90;;;;;;5057905;28;20214;-84
2021/12/04 01:52:24;;;;;;;3.50;2.70;;;6.20;99.90;;;;;;5075714;28;20603;-85
2021/12/04 01:54:51;;;;;;;3.47;2.90;;;6.10;99.90;;;;;;5075871;28;20176;-86
2021/12/04 01:57:21;;;;;;;3.00;2.60;;;6.10;99.90;;;;;;5075171;28;20179;-86
2021/12/04 01:59:47;;;;;;;3.27;2.67;;;6.20;99.90;;;;;;5075959;28;20208;-85
2021/12/04 02:02:13;;;;;;;3.20;2.80;;;6.20;99.90;;;;;;5076430;28;20204;-87
2021/12/04 02:04:39;;;;;;;3.77;2.97;;;6.20;99.90;;;;;;5076751;28;20172;-84
2021/12/04 02:07:05;;;;;;;3.13;2.73;;;6.30;99.90;;;;;;5076362;28;20257;-85
2021/12/04 02:09:33;;;;;;;3.00;2.57;;;6.50;99.90;;;;;;5077495;28;20164;-85
2021/12/04 02:11:59;;;;;;;3.07;2.70;;;6.30;99.90;;;;;;5077687;28;20160;-84
2021/12/04 02:14:24;;;;;;;2.90;2.53;;;6.30;99.90;;;;;;5077428;28;20232;-84
2021/12/04 02:16:51;;;;;;;3.67;2.60;;;6.40;99.90;;;;;;5075333;28;20235;-84
2021/12/04 02:19:17;;;;;;;3.53;2.90;;;6.50;99.90;;;;;;5076522;28;20178;-85
2021/12/04 02:21:44;;;;;;;2.83;2.37;;;6.60;99.90;;;;;;5074220;28;20740;-84
2021/12/04 02:24:11;;;;;;;2.97;2.67;;;6.70;99.90;;;;;;5077896;28;20168;-86
2021/12/04 02:26:37;;;;;;;3.40;2.60;;;7.10;99.90;;;;;;5077067;28;20176;-87
2021/12/04 02:29:03;;;;;;;3.07;2.63;;;6.90;99.90;;;;;;5075913;28;20187;-85
2021/12/04 02:31:28;;;;;;;3.43;3.00;;;6.90;99.90;;;;;;5077268;28;20184;-86
2021/12/04 02:33:54;;;;;;;3.73;2.97;;;6.80;99.90;;;;;;5076525;28;20261;-84
2021/12/04 02:36:20;;;;;;;3.60;2.77;;;6.80;99.90;;;;;;5075456;28;20176;-84
2021/12/04 02:38:50;;;;;;;3.63;3.10;;;7.00;99.90;;;;;;5076084;28;20168;-85
2021/12/04 02:41:16;;;;;;;3.30;2.90;;;7.20;99.90;;;;;;5075991;28;20208;-86
2021/12/04 02:43:42;;;;;;;3.13;2.80;;;7.30;99.90;;;;;;5075488;28;20612;-83
2021/12/04 02:46:07;;;;;;;4.13;3.30;;;7.40;99.90;;;;;;5075822;28;20640;-85
2021/12/04 02:48:33;;;;;;;3.43;3.00;;;7.40;99.90;;;;;;5083312;28;20641;-85
2021/12/04 02:50:59;;;;;;;3.70;3.17;;;7.20;99.90;;;;;;5076794;28;20193;-85
2021/12/04 02:53:25;;;;;;;4.27;2.90;;;7.00;99.90;;;;;;5070969;28;20165;-84
2021/12/04 02:55:54;;;;;;;3.73;2.77;;;7.10;99.90;;;;;;5072018;28;20183;-85
2021/12/04 02:58:21;;;;;;;3.67;3.17;;;7.30;99.90;;;;;;5076481;28;20195;-80
2021/12/04 03:00:50;;;;;;;3.47;3.10;;;7.30;99.90;;;;;;5074201;28;20205;-86
2021/12/04 03:03:19;;;;;;;3.40;2.80;;;7.40;99.90;;;;;;5074620;28;20240;-82
2021/12/04 03:05:49;;;;;;;3.73;3.20;;;7.20;99.90;;;;;;5074533;28;20185;-82
2021/12/04 03:08:18;;;;;;;3.17;2.87;;;7.00;99.90;;;;;;5073040;28;20172;-87
2021/12/04 03:10:49;;;;;;;3.07;2.67;;;7.10;99.90;;;;;;5069512;28;20264;-85
2021/12/04 03:13:19;;;;;;;3.67;3.27;;;6.90;99.90;;;;;;5064997;28;20222;-84
2021/12/04 03:15:49;;;;;;;3.77;3.00;;;6.90;99.90;;;;;;5056249;28;20264;-86
2021/12/04 03:18:20;;;;;;;3.40;3.10;;;7.00;99.90;;;;;;5056812;28;20149;-86
2021/12/04 03:20:46;;;;;;;3.97;3.30;;;7.10;99.90;;;;;;5055607;28;20664;-84
2021/12/04 03:23:19;;;;;;;6.40;4.63;;;7.20;99.90;;;;;;5055439;28;20180;-85
2021/12/04 03:25:48;;;;;;;6.10;4.23;;;7.50;99.90;;;;;;5057049;28;20528;-84
2021/12/04 03:28:16;;;;;;;3.70;3.00;;;7.50;99.90;;;;;;5056571;28;20177;-84
2021/12/04 03:30:47;;;;;;;5.00;4.03;;;7.50;99.90;;;;;;5057188;28;20708;-85
2021/12/04 03:41:16;;;;;;;3.80;3.30;;;7.80;99.90;;;;;;5074395;28;20280;-85
2021/12/04 03:43:43;;;;;;;3.30;2.90;;;7.80;99.90;;;;;;5075387;28;20188;-86
2021/12/04 03:46:16;;;;;;;4.13;3.40;;;7.70;99.90;;;;;;5080866;28;20191;-85
2021/12/04 03:48:56;;;;;;;3.60;3.10;;;7.80;99.90;;;;;;5077456;28;20183;-86
2021/12/04 03:51:23;;;;;;;3.90;3.20;;;7.90;99.90;;;;;;5079998;28;20165;-86
2021/12/04 03:54:06;;;;;;;3.80;3.40;;;7.80;99.90;;;;;;5072377;28;20201;-83
2021/12/04 03:56:32;;;;;;;3.70;3.20;;;7.90;99.90;;;;;;5060645;28;20172;-87
2021/12/04 03:59:00;;;;;;;5.30;3.40;;;7.90;99.90;;;;;;5059794;28;20173;-83
2021/12/04 04:01:26;;;;;;;4.40;3.60;;;8.00;99.90;;;;;;5058948;28;20534;-85
2021/12/04 04:03:51;;;;;;;3.60;3.20;;;8.00;99.90;;;;;;5057510;28;20195;-85
2021/12/04 04:06:18;;;;;;;3.87;3.47;;;8.00;99.90;;;;;;5059380;28;20176;-87
2021/12/04 04:08:47;;;;;;;3.77;3.40;;;8.10;99.90;;;;;;5060812;28;20164;-85
2021/12/04 04:11:13;;;;;;;3.43;3.10;;;8.10;99.90;;;;;;5062570;28;20173;-80
2021/12/04 04:13:43;;;;;;;3.47;3.17;;;8.10;99.90;;;;;;5080178;28;20181;-83
2021/12/04 04:16:09;;;;;;;4.03;3.40;;;8.10;99.90;;;;;;5074158;28;20246;-85
2021/12/04 04:18:35;;;;;;;4.00;3.53;;;8.10;99.90;;;;;;5059561;28;20172;-84
2021/12/04 04:21:04;;;;;;;3.77;2.90;;;8.10;99.90;;;;;;5058196;28;20744;-87
2021/12/04 04:23:36;;;;;;;3.57;3.10;;;8.10;99.90;;;;;;5070047;28;20166;-83
2021/12/04 04:26:02;;;;;;;3.90;3.40;;;8.20;99.90;;;;;;5072036;28;20617;-86
2021/12/04 04:28:27;;;;;;;3.67;2.97;;;8.20;99.90;;;;;;5059147;28;20169;-83
2021/12/04 04:30:53;;;;;;;2.63;2.20;;;8.10;99.90;;;;;;5061097;28;20195;-79
2021/12/04 04:33:19;;;;;;;3.43;2.83;;;8.00;99.90;;;;;;5072340;28;20195;-83
2021/12/04 04:35:49;;;;;;;2.97;2.60;;;7.90;99.90;;;;;;5076283;28;20209;-84
2021/12/04 04:38:34;;;;;;;2.93;2.63;;;8.10;99.90;;;;;;5066375;28;20222;-86
2021/12/04 05:13:07;;;;;;;3.13;2.50;;;7.10;99.90;;;;;;5041102;28;20268;-86
2021/12/04 05:15:45;;;;;;;2.77;2.50;;;7.20;99.90;;;;;;5055085;28;20180;-81
2021/12/04 05:20:52;;;;;;;3.07;2.60;;;7.40;99.90;;;;;;5056429;28;20204;-85
2021/12/04 05:23:18;;;;;;;2.77;2.43;;;7.50;99.90;;;;;;5055220;28;20165;-84
2021/12/04 05:25:44;;;;;;;2.90;2.37;;;7.50;99.90;;;;;;5056596;28;20165;-84
2021/12/04 05:28:10;;;;;;;2.50;2.30;;;7.80;99.90;;;;;;5055220;28;20172;-83
2021/12/04 05:30:36;;;;;;;2.70;2.10;;;7.40;99.90;;;;;;5055074;28;20200;-83
2021/12/04 05:33:03;;;;;;;2.20;2.00;;;7.20;99.90;;;;;;5057009;28;20534;-86
2021/12/04 05:35:30;;;;;;;2.13;1.93;;;7.20;99.90;;;;;;5058118;28;20238;-86
2021/12/04 05:37:56;;;;;;;2.90;2.60;;;7.10;99.90;;;;;;5059796;28;20165;-85
2021/12/04 05:40:23;;;;;;;2.37;2.17;;;7.10;99.90;;;;;;5060671;28;20172;-84
2021/12/04 05:42:49;;;;;;;3.30;2.67;;;7.20;99.90;;;;;;5066304;28;20194;-85
2021/12/04 05:45:21;;;;;;;3.43;2.07;;;7.30;99.90;;;;;;5068525;28;20224;-85
2021/12/04 05:50:55;;;;;;;1.90;1.67;;;7.10;99.90;;;;;;5067295;28;20168;-86
2021/12/04 05:53:26;;;;;;;2.27;1.93;;;7.00;99.90;;;;;;5076527;28;20173;-85
2021/12/04 05:55:56;;;;;;;2.23;2.03;;;6.80;99.90;;;;;;5075589;28;20172;-86
2021/12/04 05:58:24;;;;;;;1.93;1.70;;;6.80;99.90;;;;;;5076940;28;20168;-86
2021/12/04 06:00:51;;;;;;;3.10;2.10;;;6.80;99.90;;;;;;5078688;28;20554;-84
2021/12/04 06:03:17;;;;;;;2.07;1.70;;;6.80;99.90;;;;;;5080004;28;20215;-85
2021/12/04 06:05:43;;;;;;;2.57;2.07;;;6.90;99.90;;;;;;5076928;28;20174;-83
2021/12/04 06:08:09;;;;;;;2.50;1.70;;;6.90;99.90;;;;;;5077471;28;20229;-85
2021/12/04 06:10:35;;;;;;;1.67;1.50;;;7.00;99.90;;;;;;5076356;28;20259;-85
2021/12/04 06:13:00;;;;;;;3.20;1.60;;;6.90;99.90;;;;;;5076609;28;20172;-87
2021/12/04 06:15:26;;;;;;;2.17;1.70;;;7.10;99.90;;;;;;5076486;28;20184;-85
2021/12/04 06:17:54;;;;;;;2.27;1.83;;;6.90;99.90;;;;;;5079046;28;20275;-88
2021/12/04 06:23:04;;;;;;;3.00;2.10;;;6.80;99.90;;;;;;5076677;28;20225;-82
2021/12/04 06:25:29;;;;;;;3.00;2.20;;;6.90;99.90;;;;;;5074377;28;20176;-82
2021/12/04 06:27:56;;;;;;;2.80;2.30;;;6.90;99.90;;;;;;5074973;28;20195;-87
2021/12/04 06:30:23;;;;;;;2.77;2.20;;;6.80;99.90;;;;;;5076305;28;20334;-85
2021/12/04 06:32:51;;;;;;;2.60;2.10;;;7.00;99.90;;;;;;5074663;28;20245;-86
2021/12/04 06:35:20;;;;;;;2.30;1.90;;;6.80;99.90;;;;;;5075297;28;20176;-84
2021/12/04 06:37:48;;;;;;;3.73;2.80;;;6.70;99.90;;;;;;5075878;28;20172;-84
2021/12/04 06:40:14;;;;;;;3.53;2.47;;;6.70;99.90;;;;;;5076031;28;20531;-87
2021/12/04 06:42:57;;;;;;;3.30;2.33;;;6.70;99.90;;;;;;5078570;28;20208;-86
2021/12/04 06:45:23;;;;;;;2.87;2.40;;;6.80;99.90;;;;;;5077015;28;20156;-86
2021/12/04 06:47:54;;;;;;;2.60;2.00;;;6.80;99.90;;;;;;5076593;28;20168;-84
2021/12/04 06:50:45;;;;;;;2.73;2.37;;;6.80;99.90;;;;;;5079631;28;20164;-86
2021/12/04 06:55:46;;;;;;;3.70;2.77;;;6.90;99.90;;;;;;5065934;28;20260;-83
2021/12/04 06:58:13;;;;;;;3.40;2.77;;;7.00;99.90;;;;;;5061492;28;20641;-83
2021/12/04 07:00:39;;;;;;;3.53;2.80;;;7.00;99.90;;;;;;5061067;28;20227;-83
2021/12/04 07:03:05;;;;;;;3.90;3.00;;;7.00;99.90;;;;;;5066312;28;20180;-86
2021/12/04 07:05:31;;;;;;;4.27;2.77;;;6.90;99.90;;;;;;5069600;28;20181;-85
2021/12/04 07:07:57;;;;;;;5.37;3.20;;;6.80;99.90;;;;;;5070439;28;20249;-87
2021/12/04 07:10:23;;;;;;;7.70;3.13;;;6.80;99.90;;;;;;5071961;28;20704;-85
2021/12/04 07:12:50;;;;;;;5.07;3.13;;;6.80;99.90;;;;;;5078073;28;20148;-83
2021/12/04 07:15:16;;;;;;;5.07;3.90;;;6.70;99.90;;;;;;5076375;28;20199;-85
2021/12/04 07:17:50;;;;;;;3.97;3.03;;;6.70;99.90;;;;;;5071468;28;20196;-89
2021/12/04 07:20:19;;;;;;;4.70;3.50;;;6.70;99.90;;;;;;5072049;28;20173;-86
2021/12/04 07:22:55;;;;;;;4.60;3.80;;;6.80;99.90;;;;;;5063801;28;20173;-84
2021/12/04 07:25:36;;;;;;;3.97;3.57;;;7.10;99.90;;;;;;5059795;28;20243;-88
2021/12/04 07:28:03;;;;;;;4.80;3.80;;;6.90;99.90;;;;;;5060105;28;20204;-85
2021/12/04 07:30:29;;;;;;;4.00;3.40;;;6.90;99.90;;;;;;5057407;28;20215;-85
2021/12/04 07:32:55;;;;;;;4.87;4.37;;;6.80;99.90;;;;;;5059327;28;20177;-83
2021/12/04 07:35:22;;;;;;;5.33;4.33;;;6.90;99.90;;;;;;5057323;28;20211;-84
2021/12/04 07:37:48;;;;;;;5.03;4.27;;;6.80;99.90;;;;;;5058513;28;20173;-85
2021/12/04 07:40:14;;;;;;;4.63;3.83;;;7.00;99.90;;;;;;5056411;28;20219;-84
2021/12/04 07:42:41;;;;;;;5.70;4.40;;;6.90;99.90;;;;;;5061110;28;20201;-85
2021/12/04 07:45:07;;;;;;;4.97;4.40;;;6.90;99.90;;;;;;5072214;28;20180;-85
2021/12/04 07:47:34;;;;;;;4.50;4.10;;;7.10;99.90;;;;;;5076197;28;20161;-85
2021/12/04 07:50:01;;;;;;;5.23;4.50;;;7.10;99.90;;;;;;5064559;28;20173;-85
2021/12/04 07:52:27;;;;;;;5.70;4.70;;;7.10;99.90;;;;;;5071991;28;20169;-85
2021/12/04 07:54:53;;;;;;;4.60;4.20;;;7.00;99.90;;;;;;5075246;28;20180;-84
2021/12/04 07:57:20;;;;;;;4.90;4.23;;;7.20;99.90;;;;;;5075559;28;20169;-87
2021/12/04 07:59:46;;;;;;;6.10;4.63;;;7.30;99.90;;;;;;5075494;28;20324;-85
2021/12/04 08:02:12;;;;;;;4.80;4.30;;;7.20;99.90;;;;;;5065803;28;20207;-83
2021/12/04 08:04:38;;;;;;;6.87;4.00;;;7.10;99.90;;;;;;5057645;28;20630;-85
2021/12/04 08:07:05;;;;;;;5.47;4.50;;;7.30;99.90;;;;;;5062059;28;20199;-86
2021/12/04 08:09:38;;;;;;;4.57;3.97;;;7.40;99.90;;;;;;5073256;28;20176;-83
2021/12/04 08:12:04;;;;;;;6.50;4.90;;;7.50;99.90;;;;;;5070462;28;20244;-84
2021/12/04 08:14:32;;;;;;;5.27;3.83;;;7.60;99.90;;;;;;5069038;28;20173;-86
2021/12/04 08:17:01;;;;;;;4.47;3.97;;;7.60;99.90;;;;;;5057199;28;20158;-83
2021/12/04 08:19:26;;;;;;;5.33;3.87;;;7.40;99.90;;;;;;5058083;28;20161;-82
2021/12/04 08:21:53;;;;;;;5.57;4.33;;;7.50;99.90;;;;;;5060211;28;20197;-83
2021/12/04 08:24:21;;;;;;;5.33;4.20;;;7.70;99.90;;;;;;5043773;28;20184;-86
2021/12/04 08:26:49;;;;;;;6.40;4.60;;;7.70;99.90;;;;;;5061937;28;20187;-88
2021/12/04 08:29:24;;;;;;;6.63;4.70;;;7.70;99.90;;;;;;5061302;28;20200;-90
2021/12/04 08:31:51;;;;;;;5.53;4.53;;;7.50;99.90;;;;;;5063266;28;20557;-88
2021/12/04 08:34:18;;;;;;;6.10;4.90;;;7.40;99.90;;;;;;5061601;28;20195;-87
2021/12/04 08:36:44;;;;;;;6.47;5.07;;;7.30;99.90;;;;;;5061762;28;20207;-87
2021/12/04 08:39:10;;;;;;;5.73;4.63;;;7.30;99.90;;;;;;5059390;28;20177;-86
2021/12/04 08:41:36;;;;;;;6.17;5.20;;;7.50;99.90;;;;;;5059379;28;20244;-88
2021/12/04 08:44:02;;;;;;;5.63;4.90;;;7.30;99.90;;;;;;5067543;28;20170;-88
2021/12/04 08:46:29;;;;;;;6.57;5.67;;;7.30;99.90;;;;;;5076448;28;20198;-87
2021/12/04 08:48:56;;;;;;;5.73;4.80;;;7.10;99.90;;;;;;5074966;28;20169;-89
2021/12/04 08:51:23;;;;;;;5.97;4.03;;;7.10;99.90;;;;;;5073079;28;20227;-89
2021/12/04 08:53:52;;;;;;;6.33;4.80;;;7.20;99.90;;;;;;5071423;28;20176;-88
2021/12/04 08:56:18;;;;;;;7.13;4.47;;;7.10;99.90;;;;;;5066649;28;20184;-89
2021/12/04 08:58:48;;;;;;;6.67;5.10;;;7.00;99.90;;;;;;5066953;28;20169;-86
2021/12/04 09:01:25;;;;;;;6.33;4.40;;;7.00;99.90;;;;;;5066878;28;20232;-87
2021/12/04 09:04:06;;;;;;;4.30;3.67;;;7.00;99.90;;;;;;5066612;28;20164;-85
2021/12/04 09:06:34;;;;;;;6.30;4.00;;;6.90;99.90;;;;;;5069523;28;20264;-87
2021/12/04 09:09:02;;;;;;;5.00;4.30;;;7.00;99.90;;;;;;5072626;28;20268;-84
2021/12/04 09:11:31;;;;;;;6.10;4.90;;;6.90;99.90;;;;;;5055954;28;20165;-81
2021/12/04 09:13:58;;;;;;;6.40;5.63;;;7.10;99.90;;;;;;5073007;28;20179;-85
2021/12/04 09:16:25;;;;;;;6.40;5.33;;;7.00;99.90;;;;;;5072691;28;20165;-79
2021/12/04 09:18:51;;;;;;;5.87;4.67;;;6.90;99.90;;;;;;5070734;28;20211;-83
2021/12/04 09:21:19;;;;;;;6.47;5.37;;;7.00;99.90;;;;;;5072678;28;20250;-81
2021/12/04 09:23:51;;;;;;;5.27;4.27;;;6.80;99.90;;;;;;5073333;28;20219;-85
2021/12/04 09:35:05;;;;;;;7.83;5.57;;;7.00;99.90;;;;;;5047407;28;20181;-87
2021/12/04 10:17:14;;;;;;;10.53;6.40;;;7.10;99.90;;;;;;5057883;28;20233;-85
2021/12/04 10:34:31;;;;;;;13.87;8.23;;;7.10;99.90;;;;;;5077684;28;20176;-81
2021/12/04 10:37:22;;;;;;;17.10;8.60;;;7.10;99.90;;;;;;5077866;28;20153;-84
2021/12/04 10:39:49;;;;;;;14.97;9.70;;;7.20;99.90;;;;;;5078236;28;20177;-87
2021/12/04 10:42:26;;;;;;;16.40;9.03;;;7.10;99.90;;;;;;5072335;28;20208;-87
2021/12/04 10:44:59;;;;;;;17.30;8.53;;;7.20;99.90;;;;;;5072517;28;20199;-86
2021/12/04 10:47:26;;;;;;;18.03;8.80;;;7.10;99.90;;;;;;5075381;28;20165;-87
2021/12/04 10:55:55;;;;;;;13.70;9.27;;;7.30;99.90;;;;;;5078482;28;20188;-83
2021/12/04 11:34:57;;;;;;;7.57;6.03;;;6.90;99.90;;;;;;5075432;28;20196;-85
2021/12/04 11:41:21;;;;;;;7.43;5.20;;;6.80;99.90;;;;;;5074340;28;20175;-83
2021/12/04 11:46:42;;;;;;;6.80;5.30;;;6.90;99.90;;;;;;5074078;28;20176;-86
2021/12/04 11:49:19;;;;;;;6.90;5.70;;;7.00;99.90;;;;;;5075336;28;20216;-86
2021/12/04 11:52:01;;;;;;;8.83;5.50;;;7.10;99.90;;;;;;5072776;28;20192;-86
2021/12/04 11:54:57;;;;;;;7.77;6.00;;;7.10;99.90;;;;;;5072555;28;20255;-86
2021/12/04 11:57:32;;;;;;;7.40;5.43;;;7.20;99.90;;;;;;5075138;28;20184;-87
2021/12/04 12:00:27;;;;;;;9.33;6.30;;;7.20;99.90;;;;;;5088406;28;20181;-84
2021/12/04 12:03:19;;;;;;;9.03;6.37;;;7.20;99.90;;;;;;5079996;28;20266;-86
2021/12/04 12:06:17;;;;;;;7.43;5.97;;;7.20;99.90;;;;;;5072491;28;20199;-85
2021/12/04 12:08:46;;;;;;;8.23;5.90;;;7.20;99.90;;;;;;5073631;28;20214;-87
2021/12/04 12:11:29;;;;;;;8.60;5.80;;;7.20;99.90;;;;;;5074982;28;20172;-89
2021/12/04 12:14:07;;;;;;;9.00;5.83;;;7.20;99.90;;;;;;5072005;28;20195;-88
2021/12/04 12:16:45;;;;;;;9.53;6.63;;;7.10;99.90;;;;;;5059114;28;20243;-87
2021/12/04 12:19:31;;;;;;;8.10;5.60;;;7.20;99.90;;;;;;5074218;28;20644;-86
2021/12/04 12:22:15;;;;;;;8.53;5.77;;;7.20;99.90;;;;;;5075390;28;20223;-86
2021/12/04 12:24:56;;;;;;;6.90;5.70;;;7.30;99.90;;;;;;5070237;28;20157;-87
2021/12/04 12:36:49;;;;;;;7.23;5.50;;;7.40;99.90;;;;;;5068666;28;20175;-91
2021/12/04 12:39:16;;;;;;;8.50;5.80;;;7.30;99.90;;;;;;5070521;28;20198;-89
2021/12/04 12:41:48;;;;;;;8.50;5.83;;;7.30;99.90;;;;;;5047442;28;20216;-84
2021/12/04 12:45:10;;;;;;;7.63;5.50;;;7.30;99.90;;;;;;5051275;28;20177;-90
2021/12/04 12:48:03;;;;;;;7.90;6.37;;;7.30;99.90;;;;;;5070452;28;20189;-83
2021/12/04 12:50:38;;;;;;;7.17;5.80;;;7.30;99.90;;;;;;5047904;28;20170;-85
2021/12/04 12:53:27;;;;;;;8.03;6.33;;;7.40;99.90;;;;;;5055093;28;20157;-89
2021/12/04 12:59:31;;;;;;;9.13;6.20;;;7.40;99.90;;;;;;5055906;28;20165;-88
2021/12/04 13:12:06;;;;;;;8.13;6.30;;;7.40;99.90;;;;;;5071506;28;20551;-94
2021/12/04 13:14:45;;;;;;;8.53;6.80;;;7.40;99.90;;;;;;5072091;28;20301;-82
2021/12/04 13:17:19;;;;;;;8.73;6.63;;;7.40;99.90;;;;;;5063411;28;20586;-89
2021/12/04 13:20:04;;;;;;;7.70;6.40;;;7.40;99.90;;;;;;5067026;28;20268;-90
2021/12/04 13:22:56;;;;;;;9.73;6.37;;;7.40;99.90;;;;;;5053609;28;20763;-90
2021/12/04 13:25:26;;;;;;;7.93;6.00;;;7.40;99.90;;;;;;5069718;28;20169;-90
2021/12/04 13:30:19;;;;;;;16.37;8.47;;;7.40;99.90;;;;;;5073955;28;20193;-88
2021/12/04 13:32:51;;;;;;;9.93;6.97;;;7.50;99.90;;;;;;5072629;28;20237;-87
2021/12/04 13:35:25;;;;;;;10.87;6.97;;;7.50;99.90;;;;;;5077563;28;20165;-92
2021/12/04 13:38:03;;;;;;;9.57;5.97;;;7.60;99.90;;;;;;5077571;28;20163;-90
2021/12/04 13:40:33;;;;;;;10.33;6.10;;;7.50;99.90;;;;;;5056745;28;20185;-90
2021/12/04 13:43:01;;;;;;;7.90;5.07;;;7.60;99.90;;;;;;5048048;28;20177;-92
2021/12/04 13:45:30;;;;;;;7.33;5.07;;;7.60;99.90;;;;;;5056082;28;20161;-88
2021/12/04 13:48:12;;;;;;;7.87;5.60;;;7.60;99.90;;;;;;5035683;28;20196;-90
2021/12/04 13:53:13;;;;;;;6.37;4.23;;;7.70;99.90;;;;;;5067939;28;20173;-89
2021/12/04 13:55:42;;;;;;;7.10;4.87;;;7.70;99.90;;;;;;5065070;28;20187;-89
2021/12/04 13:58:17;;;;;;;8.90;5.20;;;7.70;99.90;;;;;;5065307;28;20165;-90
2021/12/04 14:00:46;;;;;;;10.60;4.87;;;7.70;99.90;;;;;;5057245;28;20554;-89
2021/12/04 14:03:23;;;;;;;7.90;4.43;;;7.80;99.90;;;;;;5074975;28;20197;-89
2021/12/04 14:05:50;;;;;;;6.17;4.17;;;7.70;99.90;;;;;;5070591;28;20172;-90
2021/12/04 14:08:22;;;;;;;4.83;3.83;;;7.90;99.90;;;;;;5067557;28;20169;-90
2021/12/04 14:10:54;;;;;;;9.43;4.40;;;7.90;99.90;;;;;;5062284;28;20193;-88
2021/12/04 14:13:25;;;;;;;8.30;4.07;;;7.90;99.90;;;;;;5064760;28;20153;-88
2021/12/04 14:15:55;;;;;;;7.00;3.90;;;8.00;99.90;;;;;;5087009;28;20272;-90
2021/12/04 14:18:23;;;;;;;6.60;3.57;;;7.90;99.90;;;;;;5059934;28;20169;-83
2021/12/04 14:20:54;;;;;;;8.00;3.43;;;7.80;99.90;;;;;;5058363;28;20215;-85
2021/12/04 14:23:23;;;;;;;9.10;3.07;;;7.60;99.90;;;;;;5073897;28;20173;-88
2021/12/04 14:25:54;;;;;;;6.00;3.10;;;7.50;99.90;;;;;;5074239;28;20236;-88
2021/12/04 14:28:44;;;;;;;9.93;3.03;;;7.70;99.90;;;;;;5071185;28;20194;-87
2021/12/04 14:31:24;;;;;;;8.43;2.93;;;7.60;99.90;;;;;;5069466;28;20165;-87
2021/12/04 14:33:53;;;;;;;7.43;3.10;;;7.70;99.90;;;;;;5061711;28;20559;-88
2021/12/04 14:36:21;;;;;;;7.67;2.97;;;7.80;99.90;;;;;;5053647;28;20180;-88
2021/12/04 14:38:49;;;;;;;9.90;3.30;;;8.00;99.90;;;;;;5053297;28;20176;-88
2021/12/04 14:41:16;;;;;;;9.67;3.10;;;7.90;99.90;;;;;;5070886;28;20216;-87
2021/12/04 14:43:42;;;;;;;7.27;3.23;;;8.10;99.90;;;;;;5070173;28;20160;-86
2021/12/04 14:46:22;;;;;;;8.97;3.40;;;7.90;99.90;;;;;;5073568;28;20164;-87
2021/12/04 14:48:52;;;;;;;9.13;3.00;;;8.00;99.90;;;;;;5074316;28;20203;-84
2021/12/04 14:51:25;;;;;;;8.53;3.03;;;8.00;99.90;;;;;;5070635;28;20181;-85
2021/12/04 14:53:56;;;;;;;9.67;4.07;;;8.00;99.90;;;;;;5073862;28;20141;-86
2021/12/04 14:56:26;;;;;;;11.07;3.67;;;8.00;99.90;;;;;;5075526;28;20195;-86
2021/12/04 14:59:23;;;;;;;11.37;3.60;;;8.00;99.90;;;;;;5073386;28;20192;-84
2021/12/04 15:01:51;;;;;;;9.03;3.67;;;8.10;99.90;;;;;;5061847;28;20287;-85
2021/12/04 15:04:17;;;;;;;11.30;4.03;;;8.00;99.90;;;;;;5058030;28;20223;-85
2021/12/04 15:06:43;;;;;;;8.73;4.13;;;7.90;99.90;;;;;;5058506;28;20693;-86
2021/12/04 15:09:14;;;;;;;6.30;4.00;;;7.80;99.90;;;;;;5056507;28;20177;-86
2021/12/04 15:11:48;;;;;;;5.40;3.30;;;7.70;99.90;;;;;;5056965;28;20176;-84
2021/12/04 15:14:19;;;;;;;14.67;3.87;;;7.70;99.90;;;;;;5056566;28;20683;-86
2021/12/04 15:16:57;;;;;;;11.03;3.80;;;7.70;99.90;;;;;;5039481;28;20169;-85
2021/12/04 15:19:37;;;;;;;8.83;3.57;;;7.70;99.90;;;;;;5036276;28;20181;-86
2021/12/04 15:22:03;;;;;;;13.97;4.20;;;7.80;99.90;;;;;;5037485;28;20201;-86
2021/12/04 15:24:35;;;;;;;9.63;4.30;;;7.80;99.90;;;;;;5035854;28;20249;-83
2021/12/04 15:27:12;;;;;;;9.33;3.87;;;7.80;99.90;;;;;;5039648;28;20525;-81
2021/12/04 15:29:39;;;;;;;9.70;3.90;;;7.70;99.90;;;;;;5044251;28;20258;-86
2021/12/04 15:32:12;;;;;;;15.17;3.90;;;7.70;99.90;;;;;;5053181;28;20196;-84
2021/12/04 15:34:49;;;;;;;10.83;3.20;;;7.70;99.90;;;;;;5065564;28;20185;-84
2021/12/04 15:37:52;;;;;;;10.43;3.93;;;7.70;99.90;;;;;;5065195;28;20176;-84
2021/12/04 15:40:27;;;;;;;12.40;3.50;;;7.70;99.90;;;;;;5065972;28;20176;-83
2021/12/04 15:43:13;;;;;;;9.37;3.97;;;7.90;99.90;;;;;;5065821;28;20291;-86
2021/12/04 15:46:03;;;;;;;12.13;3.70;;;7.70;99.90;;;;;;5064309;28;20164;-83
2021/12/04 15:52:44;;;;;;;7.57;2.70;;;7.60;99.90;;;;;;5063020;28;20516;-84
2021/12/04 15:54:23;;;;;;;10.23;3.03;;;7.50;98.80;;;;;;5065134;28;20238;-87
2021/12/04 15:56:53;;;;;;;8.43;2.70;;;7.50;98.30;;;;;;5080701;28;20187;-85
2021/12/04 15:59:25;;;;;;;8.47;2.93;;;7.50;98.00;;;;;;5082337;28;20322;-81
2021/12/04 16:01:58;;;;;;;7.90;2.43;;;7.40;97.50;;;;;;5090149;28;20205;-84
2021/12/04 16:04:26;;;;;;;10.30;2.40;;;7.40;96.80;;;;;;5087736;28;20153;-84
2021/12/04 16:06:55;;;;;;;10.83;2.80;;;7.40;96.80;;;;;;5077403;28;20327;-81
2021/12/04 16:09:33;;;;;;;9.87;2.67;;;7.40;97.00;;;;;;5085230;28;20192;-81
2021/12/04 16:12:11;;;;;;;8.37;2.63;;;7.40;96.50;;;;;;5064604;28;20172;-82
2021/12/04 16:14:42;;;;;;;9.77;2.70;;;7.40;96.20;;;;;;5061577;28;20179;-85
2021/12/04 16:17:10;;;;;;;10.90;3.03;;;7.40;96.20;;;;;;5077386;28;20173;-84
2021/12/04 16:19:38;;;;;;;10.17;3.60;;;7.40;96.40;;;;;;5057429;28;20173;-84
2021/12/04 16:22:08;;;;;;;13.10;3.60;;;7.40;96.70;;;;;;5061574;28;20267;-85
2021/12/04 16:24:42;;;;;;;15.33;3.63;;;7.40;96.80;;;;;;5074897;28;20629;-85
2021/12/04 16:27:19;;;;;;;12.00;3.67;;;7.40;97.30;;;;;;5067450;28;20203;-81
2021/12/04 16:29:59;;;;;;;9.40;3.40;;;7.30;97.50;;;;;;5061881;28;20192;-86
2021/12/04 16:40:12;;;;;;;12.57;4.13;;;7.20;98.50;;;;;;5061545;28;20193;-84
2021/12/04 16:42:38;;;;;;;12.90;3.53;;;7.30;98.70;;;;;;5062132;28;20219;-86
2021/12/04 16:45:08;;;;;;;16.00;4.07;;;7.30;98.20;;;;;;5063190;28;20324;-84
2021/12/04 16:47:42;;;;;;;9.07;3.23;;;7.30;98.10;;;;;;5061567;28;20173;-85